sensor_id;sensor_type;location;lat;lon;timestamp;temperature;humidity
23629;DHT22;11991;57.150;-2.134;2022-09-16T00:00:50;9.00;99.90
23629;DHT22;11991;57.150;-2.134;2022-09-16T00:03:18;9.00;99.90
23629;DHT22;11991;57.150;-2.134;2022-09-16T00:05:47;9.00;99.90
23629;DHT22;11991;57.150;-2.134;2022-09-16T00:08:16;9.00;99.90
23629;DHT22;11991;57.150;-2.134;2022-09-16T00:10:43;9.00;99.90
23629;DHT22;11991;57.150;-2.134;2022-09-16T00:13:12;9.00;99.90
23629;DHT22;11991;57.150;-2.134;2022-09-16T00:15:48;9.00;99.90
23629;DHT22;11991;57.150;-2.134;2022-09-16T00:18:17;9.00;99.90
23629;DHT22;11991;57.150;-2.134;2022-09-16T00:20:48;9.00;99.90
23629;DHT22;11991;57.150;-2.134;2022-09-16T00:23:15;9.00;99.90
23629;DHT22;11991;57.150;-2.134;2022-09-16T00:25:43;9.00;99.90
23629;DHT22;11991;57.150;-2.134;2022-09-16T00:28:10;9.00;99.90
23629;DHT22;11991;57.150;-2.134;2022-09-16T00:30:37;9.00;99.90
23629;DHT22;11991;57.150;-2.134;2022-09-16T00:33:06;9.00;99.90
23629;DHT22;11991;57.150;-2.134;2022-09-16T00:35:37;9.10;99.90
23629;DHT22;11991;57.150;-2.134;2022-09-16T00:38:05;9.10;99.90
23629;DHT22;11991;57.150;-2.134;2022-09-16T00:40:34;9.10;99.90
23629;DHT22;11991;57.150;-2.134;2022-09-16T00:43:01;9.10;99.90
23629;DHT22;11991;57.150;-2.134;2022-09-16T00:45:28;9.10;99.90
23629;DHT22;11991;57.150;-2.134;2022-09-16T00:48:09;9.20;99.90
23629;DHT22;11991;57.150;-2.134;2022-09-16T00:50:50;9.10;99.90
23629;DHT22;11991;57.150;-2.134;2022-09-16T00:53:33;9.10;99.90
23629;DHT22;11991;57.150;-2.134;2022-09-16T00:56:10;9.10;99.90
23629;DHT22;11991;57.150;-2.134;2022-09-16T00:58:46;9.10;99.90
23629;DHT22;11991;57.150;-2.134;2022-09-16T01:01:14;9.00;99.90
23629;DHT22;11991;57.150;-2.134;2022-09-16T01:03:48;8.90;99.90
23629;DHT22;11991;57.150;-2.134;2022-09-16T01:06:17;8.90;99.90
23629;DHT22;11991;57.150;-2.134;2022-09-16T01:08:46;8.90;99.90
23629;DHT22;11991;57.150;-2.134;2022-09-16T01:11:15;8.90;99.90
23629;DHT22;11991;57.150;-2.134;2022-09-16T01:13:43;8.90;99.90
23629;DHT22;11991;57.150;-2.134;2022-09-16T01:16:13;8.90;99.90
23629;DHT22;11991;57.150;-2.134;2022-09-16T01:32:52;8.80;99.90
23629;DHT22;11991;57.150;-2.134;2022-09-16T01:38:14;8.80;99.90
23629;DHT22;11991;57.150;-2.134;2022-09-16T01:41:04;8.70;99.90
23629;DHT22;11991;57.150;-2.134;2022-09-16T01:43:50;8.70;99.90
23629;DHT22;11991;57.150;-2.134;2022-09-16T01:52:19;8.80;99.90
23629;DHT22;11991;57.150;-2.134;2022-09-16T01:54:58;8.80;99.90
23629;DHT22;11991;57.150;-2.134;2022-09-16T02:00:07;8.90;99.90
23629;DHT22;11991;57.150;-2.134;2022-09-16T02:02:59;8.90;99.90
23629;DHT22;11991;57.150;-2.134;2022-09-16T02:05:39;8.80;99.90
23629;DHT22;11991;57.150;-2.134;2022-09-16T02:08:12;8.80;99.90
23629;DHT22;11991;57.150;-2.134;2022-09-16T02:10:45;8.80;99.90
23629;DHT22;11991;57.150;-2.134;2022-09-16T02:13:20;8.80;99.90
23629;DHT22;11991;57.150;-2.134;2022-09-16T02:15:52;8.70;99.90
23629;DHT22;11991;57.150;-2.134;2022-09-16T02:18:25;8.70;99.90
23629;DHT22;11991;57.150;-2.134;2022-09-16T02:20:55;8.70;99.90
23629;DHT22;11991;57.150;-2.134;2022-09-16T02:23:37;8.70;99.90
23629;DHT22;11991;57.150;-2.134;2022-09-16T02:26:09;8.70;99.90
23629;DHT22;11991;57.150;-2.134;2022-09-16T02:28:39;8.70;99.90
23629;DHT22;11991;57.150;-2.134;2022-09-16T02:31:09;8.70;99.90
23629;DHT22;11991;57.150;-2.134;2022-09-16T02:33:49;8.70;99.90
23629;DHT22;11991;57.150;-2.134;2022-09-16T02:36:20;8.60;99.90
23629;DHT22;11991;57.150;-2.134;2022-09-16T02:39:17;8.60;99.90
23629;DHT22;11991;57.150;-2.134;2022-09-16T02:41:45;8.60;99.90
23629;DHT22;11991;57.150;-2.134;2022-09-16T02:44:13;8.60;99.90
23629;DHT22;11991;57.150;-2.134;2022-09-16T02:47:08;8.60;99.90
23629;DHT22;11991;57.150;-2.134;2022-09-16T02:50:13;8.60;99.90
23629;DHT22;11991;57.150;-2.134;2022-09-16T02:55:40;8.60;99.90
23629;DHT22;11991;57.150;-2.134;2022-09-16T02:58:12;8.60;99.90
23629;DHT22;11991;57.150;-2.134;2022-09-16T03:00:46;8.60;99.90
23629;DHT22;11991;57.150;-2.134;2022-09-16T03:03:14;8.60;99.90
23629;DHT22;11991;57.150;-2.134;2022-09-16T03:08:37;8.60;99.90
23629;DHT22;11991;57.150;-2.134;2022-09-16T03:28:25;8.60;99.90
23629;DHT22;11991;57.150;-2.134;2022-09-16T03:31:07;8.60;99.90
23629;DHT22;11991;57.150;-2.134;2022-09-16T03:36:08;8.60;99.90
23629;DHT22;11991;57.150;-2.134;2022-09-16T03:38:38;8.70;99.90
23629;DHT22;11991;57.150;-2.134;2022-09-16T03:41:07;8.60;99.90
23629;DHT22;11991;57.150;-2.134;2022-09-16T03:43:50;8.60;99.90
23629;DHT22;11991;57.150;-2.134;2022-09-16T03:46:17;8.60;99.90
23629;DHT22;11991;57.150;-2.134;2022-09-16T03:48:45;8.60;99.90
23629;DHT22;11991;57.150;-2.134;2022-09-16T03:51:12;8.50;99.90
23629;DHT22;11991;57.150;-2.134;2022-09-16T03:53:40;8.50;99.90
23629;DHT22;11991;57.150;-2.134;2022-09-16T03:56:08;8.40;99.90
23629;DHT22;11991;57.150;-2.134;2022-09-16T03:58:35;8.40;99.90
23629;DHT22;11991;57.150;-2.134;2022-09-16T04:01:02;8.40;99.90
23629;DHT22;11991;57.150;-2.134;2022-09-16T04:03:29;8.40;99.90
23629;DHT22;11991;57.150;-2.134;2022-09-16T04:05:59;8.40;99.90
23629;DHT22;11991;57.150;-2.134;2022-09-16T04:08:26;8.40;99.90
23629;DHT22;11991;57.150;-2.134;2022-09-16T04:10:58;8.40;99.90
23629;DHT22;11991;57.150;-2.134;2022-09-16T04:13:28;8.40;99.90
23629;DHT22;11991;57.150;-2.134;2022-09-16T04:15:55;8.40;99.90
23629;DHT22;11991;57.150;-2.134;2022-09-16T04:18:23;8.50;99.90
23629;DHT22;11991;57.150;-2.134;2022-09-16T04:20:50;8.50;99.90
23629;DHT22;11991;57.150;-2.134;2022-09-16T04:23:23;8.40;99.90
23629;DHT22;11991;57.150;-2.134;2022-09-16T04:25:59;8.40;99.90
23629;DHT22;11991;57.150;-2.134;2022-09-16T04:28:27;8.40;99.90
23629;DHT22;11991;57.150;-2.134;2022-09-16T04:30:58;8.40;99.90
23629;DHT22;11991;57.150;-2.134;2022-09-16T04:33:28;8.40;99.90
23629;DHT22;11991;57.150;-2.134;2022-09-16T04:36:22;8.40;99.90
23629;DHT22;11991;57.150;-2.134;2022-09-16T04:38:49;8.40;99.90
23629;DHT22;11991;57.150;-2.134;2022-09-16T04:41:19;8.40;99.90
23629;DHT22;11991;57.150;-2.134;2022-09-16T04:43:49;8.40;99.90
23629;DHT22;11991;57.150;-2.134;2022-09-16T04:46:18;8.30;99.90
23629;DHT22;11991;57.150;-2.134;2022-09-16T04:48:47;8.30;99.90
23629;DHT22;11991;57.150;-2.134;2022-09-16T04:51:14;8.30;99.90
23629;DHT22;11991;57.150;-2.134;2022-09-16T04:53:42;8.30;99.90
23629;DHT22;11991;57.150;-2.134;2022-09-16T04:56:15;8.30;99.90
23629;DHT22;11991;57.150;-2.134;2022-09-16T04:58:45;8.30;99.90
23629;DHT22;11991;57.150;-2.134;2022-09-16T05:01:18;8.30;99.90
23629;DHT22;11991;57.150;-2.134;2022-09-16T05:03:47;8.30;99.90
23629;DHT22;11991;57.150;-2.134;2022-09-16T05:06:26;8.30;99.90
23629;DHT22;11991;57.150;-2.134;2022-09-16T05:08:55;8.30;99.90
23629;DHT22;11991;57.150;-2.134;2022-09-16T05:11:25;8.30;99.90
23629;DHT22;11991;57.150;-2.134;2022-09-16T05:13:56;8.30;99.90
23629;DHT22;11991;57.150;-2.134;2022-09-16T05:16:24;8.30;99.90
23629;DHT22;11991;57.150;-2.134;2022-09-16T05:18:54;8.30;99.90
23629;DHT22;11991;57.150;-2.134;2022-09-16T05:21:23;8.40;99.90
23629;DHT22;11991;57.150;-2.134;2022-09-16T05:23:51;8.40;99.90
23629;DHT22;11991;57.150;-2.134;2022-09-16T05:26:21;8.40;99.90
23629;DHT22;11991;57.150;-2.134;2022-09-16T05:28:49;8.40;99.90
23629;DHT22;11991;57.150;-2.134;2022-09-16T05:31:23;8.40;99.90
23629;DHT22;11991;57.150;-2.134;2022-09-16T05:33:55;8.40;99.90
23629;DHT22;11991;57.150;-2.134;2022-09-16T05:36:24;8.50;99.90
23629;DHT22;11991;57.150;-2.134;2022-09-16T05:38:51;8.50;99.90
23629;DHT22;11991;57.150;-2.134;2022-09-16T05:41:38;8.50;99.90
23629;DHT22;11991;57.150;-2.134;2022-09-16T05:44:06;8.50;99.90
23629;DHT22;11991;57.150;-2.134;2022-09-16T05:46:34;8.40;99.90
23629;DHT22;11991;57.150;-2.134;2022-09-16T05:49:01;8.30;99.90
23629;DHT22;11991;57.150;-2.134;2022-09-16T05:51:29;8.30;99.90
23629;DHT22;11991;57.150;-2.134;2022-09-16T05:53:58;8.30;99.90
23629;DHT22;11991;57.150;-2.134;2022-09-16T05:56:27;8.30;99.90
23629;DHT22;11991;57.150;-2.134;2022-09-16T05:59:01;8.30;99.90
23629;DHT22;11991;57.150;-2.134;2022-09-16T06:01:32;8.30;99.90
23629;DHT22;11991;57.150;-2.134;2022-09-16T06:04:02;8.30;99.90
23629;DHT22;11991;57.150;-2.134;2022-09-16T06:06:39;8.30;99.90
23629;DHT22;11991;57.150;-2.134;2022-09-16T06:09:25;8.30;99.90
23629;DHT22;11991;57.150;-2.134;2022-09-16T06:11:53;8.30;99.90
23629;DHT22;11991;57.150;-2.134;2022-09-16T06:14:27;8.30;99.90
23629;DHT22;11991;57.150;-2.134;2022-09-16T06:16:55;8.30;99.90
23629;DHT22;11991;57.150;-2.134;2022-09-16T06:19:22;8.30;99.90
23629;DHT22;11991;57.150;-2.134;2022-09-16T06:21:50;8.30;99.90
23629;DHT22;11991;57.150;-2.134;2022-09-16T06:24:18;8.30;99.90
23629;DHT22;11991;57.150;-2.134;2022-09-16T06:26:47;8.30;99.90
23629;DHT22;11991;57.150;-2.134;2022-09-16T06:29:15;8.30;99.90
23629;DHT22;11991;57.150;-2.134;2022-09-16T06:31:43;8.30;99.90
23629;DHT22;11991;57.150;-2.134;2022-09-16T06:34:15;8.40;99.90
23629;DHT22;11991;57.150;-2.134;2022-09-16T06:36:44;8.40;99.90
23629;DHT22;11991;57.150;-2.134;2022-09-16T06:39:13;8.40;99.90
23629;DHT22;11991;57.150;-2.134;2022-09-16T06:41:40;8.40;99.90
23629;DHT22;11991;57.150;-2.134;2022-09-16T06:44:07;8.40;99.90
23629;DHT22;11991;57.150;-2.134;2022-09-16T06:46:35;8.40;99.90
23629;DHT22;11991;57.150;-2.134;2022-09-16T06:49:03;8.50;99.90
23629;DHT22;11991;57.150;-2.134;2022-09-16T06:51:33;8.50;99.90
23629;DHT22;11991;57.150;-2.134;2022-09-16T06:54:06;8.60;99.90
23629;DHT22;11991;57.150;-2.134;2022-09-16T06:56:34;8.60;99.90
23629;DHT22;11991;57.150;-2.134;2022-09-16T06:59:03;8.70;99.90
23629;DHT22;11991;57.150;-2.134;2022-09-16T07:01:31;8.70;99.90
23629;DHT22;11991;57.150;-2.134;2022-09-16T07:04:08;8.70;99.90
23629;DHT22;11991;57.150;-2.134;2022-09-16T07:06:39;8.70;99.90
23629;DHT22;11991;57.150;-2.134;2022-09-16T07:09:27;8.70;99.90
23629;DHT22;11991;57.150;-2.134;2022-09-16T07:11:54;8.70;99.90
23629;DHT22;11991;57.150;-2.134;2022-09-16T07:14:22;8.70;99.90
23629;DHT22;11991;57.150;-2.134;2022-09-16T07:16:49;8.70;99.90
23629;DHT22;11991;57.150;-2.134;2022-09-16T07:19:17;8.80;99.90
23629;DHT22;11991;57.150;-2.134;2022-09-16T07:21:44;8.90;99.90
23629;DHT22;11991;57.150;-2.134;2022-09-16T07:24:12;8.90;99.90
23629;DHT22;11991;57.150;-2.134;2022-09-16T07:26:41;9.00;99.90
23629;DHT22;11991;57.150;-2.134;2022-09-16T07:29:12;9.10;99.90
23629;DHT22;11991;57.150;-2.134;2022-09-16T07:31:40;9.10;99.90
23629;DHT22;11991;57.150;-2.134;2022-09-16T07:34:08;9.10;99.90
23629;DHT22;11991;57.150;-2.134;2022-09-16T07:36:42;9.10;99.90
23629;DHT22;11991;57.150;-2.134;2022-09-16T07:39:10;9.10;99.90
23629;DHT22;11991;57.150;-2.134;2022-09-16T07:41:40;9.20;99.90
23629;DHT22;11991;57.150;-2.134;2022-09-16T07:44:14;9.20;99.90
23629;DHT22;11991;57.150;-2.134;2022-09-16T07:46:42;9.30;99.90
23629;DHT22;11991;57.150;-2.134;2022-09-16T07:49:12;9.30;99.90
23629;DHT22;11991;57.150;-2.134;2022-09-16T07:51:40;9.30;99.90
23629;DHT22;11991;57.150;-2.134;2022-09-16T07:54:11;9.40;99.90
23629;DHT22;11991;57.150;-2.134;2022-09-16T07:56:40;9.50;99.90
23629;DHT22;11991;57.150;-2.134;2022-09-16T07:59:12;9.50;99.90
23629;DHT22;11991;57.150;-2.134;2022-09-16T08:01:45;9.50;99.90
23629;DHT22;11991;57.150;-2.134;2022-09-16T08:04:13;9.60;99.90
23629;DHT22;11991;57.150;-2.134;2022-09-16T08:06:40;9.70;99.90
23629;DHT22;11991;57.150;-2.134;2022-09-16T08:09:08;9.80;99.90
23629;DHT22;11991;57.150;-2.134;2022-09-16T08:11:55;9.90;99.90
23629;DHT22;11991;57.150;-2.134;2022-09-16T08:14:22;10.00;99.90
23629;DHT22;11991;57.150;-2.134;2022-09-16T08:16:50;10.00;99.90
23629;DHT22;11991;57.150;-2.134;2022-09-16T08:19:17;10.00;99.90
23629;DHT22;11991;57.150;-2.134;2022-09-16T08:21:46;10.00;99.90
23629;DHT22;11991;57.150;-2.134;2022-09-16T08:24:13;9.90;99.90
23629;DHT22;11991;57.150;-2.134;2022-09-16T08:26:42;9.80;99.90
23629;DHT22;11991;57.150;-2.134;2022-09-16T08:29:09;9.80;99.90
23629;DHT22;11991;57.150;-2.134;2022-09-16T08:31:37;9.80;99.90
23629;DHT22;11991;57.150;-2.134;2022-09-16T08:34:05;9.80;99.90
23629;DHT22;11991;57.150;-2.134;2022-09-16T08:36:32;10.00;99.90
23629;DHT22;11991;57.150;-2.134;2022-09-16T08:39:00;10.00;99.90
23629;DHT22;11991;57.150;-2.134;2022-09-16T08:45:28;10.20;99.90
23629;DHT22;11991;57.150;-2.134;2022-09-16T08:50:17;10.20;99.90
23629;DHT22;11991;57.150;-2.134;2022-09-16T08:52:45;10.00;99.90
23629;DHT22;11991;57.150;-2.134;2022-09-16T08:55:32;9.90;99.90
23629;DHT22;11991;57.150;-2.134;2022-09-16T09:00:32;9.80;99.90
23629;DHT22;11991;57.150;-2.134;2022-09-16T09:05:56;9.90;99.90
23629;DHT22;11991;57.150;-2.134;2022-09-16T09:14:36;10.30;99.90
23629;DHT22;11991;57.150;-2.134;2022-09-16T09:23:26;10.50;99.90
23629;DHT22;11991;57.150;-2.134;2022-09-16T09:41:59;10.80;99.90
23629;DHT22;11991;57.150;-2.134;2022-09-16T09:46:11;10.90;99.90
23629;DHT22;11991;57.150;-2.134;2022-09-16T09:48:45;10.80;99.90
23629;DHT22;11991;57.150;-2.134;2022-09-16T09:51:29;10.90;99.90
23629;DHT22;11991;57.150;-2.134;2022-09-16T09:57:32;11.00;99.90
23629;DHT22;11991;57.150;-2.134;2022-09-16T10:02:45;10.90;99.90
23629;DHT22;11991;57.150;-2.134;2022-09-16T10:05:41;10.90;99.90
23629;DHT22;11991;57.150;-2.134;2022-09-16T10:10:55;11.10;99.90
23629;DHT22;11991;57.150;-2.134;2022-09-16T10:13:52;11.10;99.90
23629;DHT22;11991;57.150;-2.134;2022-09-16T10:16:50;11.20;99.90
23629;DHT22;11991;57.150;-2.134;2022-09-16T10:19:23;11.20;99.90
23629;DHT22;11991;57.150;-2.134;2022-09-16T10:24:58;11.20;99.90
23629;DHT22;11991;57.150;-2.134;2022-09-16T10:30:13;11.30;99.90
23629;DHT22;11991;57.150;-2.134;2022-09-16T10:35:38;11.40;99.90
23629;DHT22;11991;57.150;-2.134;2022-09-16T10:38:17;11.50;99.90
23629;DHT22;11991;57.150;-2.134;2022-09-16T10:41:31;11.60;99.90
23629;DHT22;11991;57.150;-2.134;2022-09-16T10:44:00;11.70;99.90
23629;DHT22;11991;57.150;-2.134;2022-09-16T10:46:29;11.50;99.90
23629;DHT22;11991;57.150;-2.134;2022-09-16T10:49:00;11.20;99.90
23629;DHT22;11991;57.150;-2.134;2022-09-16T10:51:30;10.90;99.90
23629;DHT22;11991;57.150;-2.134;2022-09-16T10:54:01;10.60;99.90
23629;DHT22;11991;57.150;-2.134;2022-09-16T10:56:33;10.50;99.90
23629;DHT22;11991;57.150;-2.134;2022-09-16T10:59:08;10.50;99.90
23629;DHT22;11991;57.150;-2.134;2022-09-16T11:04:39;10.80;99.90
23629;DHT22;11991;57.150;-2.134;2022-09-16T11:10:47;11.40;99.90
23629;DHT22;11991;57.150;-2.134;2022-09-16T11:25:27;11.60;99.90
23629;DHT22;11991;57.150;-2.134;2022-09-16T11:28:18;11.60;99.90
23629;DHT22;11991;57.150;-2.134;2022-09-16T11:31:06;11.60;99.90
23629;DHT22;11991;57.150;-2.134;2022-09-16T11:33:44;11.60;99.90
23629;DHT22;11991;57.150;-2.134;2022-09-16T11:36:22;11.70;99.90
23629;DHT22;11991;57.150;-2.134;2022-09-16T11:39:20;11.80;99.90
23629;DHT22;11991;57.150;-2.134;2022-09-16T11:58:54;10.80;99.90
23629;DHT22;11991;57.150;-2.134;2022-09-16T12:01:44;11.00;99.90
23629;DHT22;11991;57.150;-2.134;2022-09-16T12:04:31;11.30;99.90
23629;DHT22;11991;57.150;-2.134;2022-09-16T12:07:25;11.50;99.90
23629;DHT22;11991;57.150;-2.134;2022-09-16T12:10:46;11.70;99.90
23629;DHT22;11991;57.150;-2.134;2022-09-16T12:15:44;11.90;99.90
23629;DHT22;11991;57.150;-2.134;2022-09-16T12:18:25;12.00;99.90
23629;DHT22;11991;57.150;-2.134;2022-09-16T12:20:57;12.20;99.90
23629;DHT22;11991;57.150;-2.134;2022-09-16T12:23:33;12.20;99.90
23629;DHT22;11991;57.150;-2.134;2022-09-16T12:26:08;12.10;99.90
23629;DHT22;11991;57.150;-2.134;2022-09-16T12:31:48;11.60;99.90
23629;DHT22;11991;57.150;-2.134;2022-09-16T12:34:28;11.50;99.90
23629;DHT22;11991;57.150;-2.134;2022-09-16T12:39:49;11.40;99.90
23629;DHT22;11991;57.150;-2.134;2022-09-16T12:56:08;12.00;99.90
23629;DHT22;11991;57.150;-2.134;2022-09-16T12:59:13;11.80;99.90
23629;DHT22;11991;57.150;-2.134;2022-09-16T13:01:46;11.80;99.90
23629;DHT22;11991;57.150;-2.134;2022-09-16T13:07:26;11.90;99.90
23629;DHT22;11991;57.150;-2.134;2022-09-16T13:10:17;12.00;99.90
23629;DHT22;11991;57.150;-2.134;2022-09-16T13:13:02;12.00;99.90
23629;DHT22;11991;57.150;-2.134;2022-09-16T13:15:35;11.80;99.90
23629;DHT22;11991;57.150;-2.134;2022-09-16T13:18:20;11.70;99.90
23629;DHT22;11991;57.150;-2.134;2022-09-16T13:20:51;11.60;99.90
23629;DHT22;11991;57.150;-2.134;2022-09-16T13:23:28;11.70;99.90
23629;DHT22;11991;57.150;-2.134;2022-09-16T13:26:04;11.70;99.90
23629;DHT22;11991;57.150;-2.134;2022-09-16T13:28:44;11.80;99.90
23629;DHT22;11991;57.150;-2.134;2022-09-16T13:38:52;12.30;99.90
23629;DHT22;11991;57.150;-2.134;2022-09-16T13:46:52;12.10;99.90
23629;DHT22;11991;57.150;-2.134;2022-09-16T13:49:22;12.20;99.90
23629;DHT22;11991;57.150;-2.134;2022-09-16T13:51:51;12.30;99.90
23629;DHT22;11991;57.150;-2.134;2022-09-16T13:54:25;12.50;99.90
23629;DHT22;11991;57.150;-2.134;2022-09-16T13:57:15;12.70;99.90
23629;DHT22;11991;57.150;-2.134;2022-09-16T14:08:10;12.90;99.90
23629;DHT22;11991;57.150;-2.134;2022-09-16T14:13:18;12.80;99.90
23629;DHT22;11991;57.150;-2.134;2022-09-16T14:15:49;12.70;99.90
23629;DHT22;11991;57.150;-2.134;2022-09-16T14:18:21;12.60;99.90
23629;DHT22;11991;57.150;-2.134;2022-09-16T14:21:18;12.60;99.90
23629;DHT22;11991;57.150;-2.134;2022-09-16T14:23:46;12.60;99.90
23629;DHT22;11991;57.150;-2.134;2022-09-16T14:26:16;12.40;99.90
23629;DHT22;11991;57.150;-2.134;2022-09-16T14:28:44;12.50;99.90
23629;DHT22;11991;57.150;-2.134;2022-09-16T14:31:15;12.60;99.90
23629;DHT22;11991;57.150;-2.134;2022-09-16T14:33:53;12.60;99.90
23629;DHT22;11991;57.150;-2.134;2022-09-16T14:36:36;12.60;99.90
23629;DHT22;11991;57.150;-2.134;2022-09-16T14:39:11;12.60;99.90
23629;DHT22;11991;57.150;-2.134;2022-09-16T14:42:06;12.60;99.90
23629;DHT22;11991;57.150;-2.134;2022-09-16T14:44:38;12.60;99.90
23629;DHT22;11991;57.150;-2.134;2022-09-16T14:50:20;12.80;99.90
23629;DHT22;11991;57.150;-2.134;2022-09-16T14:52:53;12.50;99.90
23629;DHT22;11991;57.150;-2.134;2022-09-16T14:55:25;12.40;99.90
23629;DHT22;11991;57.150;-2.134;2022-09-16T14:57:54;12.00;99.90
23629;DHT22;11991;57.150;-2.134;2022-09-16T15:00:42;12.10;99.90
23629;DHT22;11991;57.150;-2.134;2022-09-16T15:06:24;12.20;99.90
23629;DHT22;11991;57.150;-2.134;2022-09-16T15:09:02;12.20;99.90
23629;DHT22;11991;57.150;-2.134;2022-09-16T15:11:35;12.30;99.90
23629;DHT22;11991;57.150;-2.134;2022-09-16T15:14:15;12.10;99.90
23629;DHT22;11991;57.150;-2.134;2022-09-16T15:16:58;12.00;99.90
23629;DHT22;11991;57.150;-2.134;2022-09-16T15:19:32;11.90;99.90
23629;DHT22;11991;57.150;-2.134;2022-09-16T15:22:02;12.00;99.90
23629;DHT22;11991;57.150;-2.134;2022-09-16T15:24:32;12.10;99.90
23629;DHT22;11991;57.150;-2.134;2022-09-16T15:27:02;12.20;99.90
23629;DHT22;11991;57.150;-2.134;2022-09-16T15:29:32;12.20;99.90
23629;DHT22;11991;57.150;-2.134;2022-09-16T15:32:21;12.30;99.90
23629;DHT22;11991;57.150;-2.134;2022-09-16T15:35:24;12.30;99.90
23629;DHT22;11991;57.150;-2.134;2022-09-16T15:37:51;11.80;99.90
23629;DHT22;11991;57.150;-2.134;2022-09-16T15:45:31;10.90;99.90
23629;DHT22;11991;57.150;-2.134;2022-09-16T15:48:11;10.80;99.90
23629;DHT22;11991;57.150;-2.134;2022-09-16T15:53:40;10.90;99.90
23629;DHT22;11991;57.150;-2.134;2022-09-16T15:56:20;11.00;99.90
23629;DHT22;11991;57.150;-2.134;2022-09-16T15:59:02;11.10;99.90
23629;DHT22;11991;57.150;-2.134;2022-09-16T16:01:46;11.20;99.90
23629;DHT22;11991;57.150;-2.134;2022-09-16T16:04:31;11.30;99.90
23629;DHT22;11991;57.150;-2.134;2022-09-16T16:07:00;11.30;99.90
23629;DHT22;11991;57.150;-2.134;2022-09-16T16:09:29;11.40;99.90
23629;DHT22;11991;57.150;-2.134;2022-09-16T16:12:06;11.50;99.90
23629;DHT22;11991;57.150;-2.134;2022-09-16T16:14:35;11.60;99.90
23629;DHT22;11991;57.150;-2.134;2022-09-16T16:17:11;11.70;99.90
23629;DHT22;11991;57.150;-2.134;2022-09-16T16:19:45;11.80;99.90
23629;DHT22;11991;57.150;-2.134;2022-09-16T16:22:13;11.80;99.90
23629;DHT22;11991;57.150;-2.134;2022-09-16T16:24:42;11.90;99.90
23629;DHT22;11991;57.150;-2.134;2022-09-16T16:27:09;11.90;99.90
23629;DHT22;11991;57.150;-2.134;2022-09-16T16:29:37;11.90;99.90
23629;DHT22;11991;57.150;-2.134;2022-09-16T16:32:10;11.90;99.90
23629;DHT22;11991;57.150;-2.134;2022-09-16T16:34:43;11.90;99.90
23629;DHT22;11991;57.150;-2.134;2022-09-16T16:37:12;11.70;99.90
23629;DHT22;11991;57.150;-2.134;2022-09-16T16:40:02;11.70;99.90
23629;DHT22;11991;57.150;-2.134;2022-09-16T16:42:29;11.60;99.90
23629;DHT22;11991;57.150;-2.134;2022-09-16T16:44:57;11.60;99.90
23629;DHT22;11991;57.150;-2.134;2022-09-16T16:47:24;11.50;99.90
23629;DHT22;11991;57.150;-2.134;2022-09-16T16:49:52;11.50;99.90
23629;DHT22;11991;57.150;-2.134;2022-09-16T16:52:19;11.50;99.90
23629;DHT22;11991;57.150;-2.134;2022-09-16T16:54:47;11.50;99.90
23629;DHT22;11991;57.150;-2.134;2022-09-16T16:57:14;11.50;99.90
23629;DHT22;11991;57.150;-2.134;2022-09-16T16:59:42;11.50;99.90
23629;DHT22;11991;57.150;-2.134;2022-09-16T17:02:10;11.60;99.90
23629;DHT22;11991;57.150;-2.134;2022-09-16T17:04:38;11.60;99.90
23629;DHT22;11991;57.150;-2.134;2022-09-16T17:07:05;11.60;99.90
23629;DHT22;11991;57.150;-2.134;2022-09-16T17:10:17;11.40;99.90
23629;DHT22;11991;57.150;-2.134;2022-09-16T17:12:44;11.40;99.90
23629;DHT22;11991;57.150;-2.134;2022-09-16T17:15:12;11.30;99.90
23629;DHT22;11991;57.150;-2.134;2022-09-16T17:17:39;11.30;99.90
23629;DHT22;11991;57.150;-2.134;2022-09-16T17:20:07;11.30;99.90
23629;DHT22;11991;57.150;-2.134;2022-09-16T17:22:35;11.30;99.90
23629;DHT22;11991;57.150;-2.134;2022-09-16T17:25:02;11.20;99.90
23629;DHT22;11991;57.150;-2.134;2022-09-16T17:27:30;11.20;99.90
23629;DHT22;11991;57.150;-2.134;2022-09-16T17:29:57;11.20;99.90
23629;DHT22;11991;57.150;-2.134;2022-09-16T17:32:27;11.20;99.90
23629;DHT22;11991;57.150;-2.134;2022-09-16T17:34:54;11.10;99.90
23629;DHT22;11991;57.150;-2.134;2022-09-16T17:37:21;11.10;99.90
23629;DHT22;11991;57.150;-2.134;2022-09-16T17:39:48;11.00;99.90
23629;DHT22;11991;57.150;-2.134;2022-09-16T17:42:16;11.00;99.90
23629;DHT22;11991;57.150;-2.134;2022-09-16T17:44:43;11.00;99.90
23629;DHT22;11991;57.150;-2.134;2022-09-16T17:47:10;11.00;99.90
23629;DHT22;11991;57.150;-2.134;2022-09-16T17:49:38;11.00;99.90
23629;DHT22;11991;57.150;-2.134;2022-09-16T17:52:05;10.80;99.90
23629;DHT22;11991;57.150;-2.134;2022-09-16T17:54:32;10.60;99.90
23629;DHT22;11991;57.150;-2.134;2022-09-16T17:56:59;10.30;99.90
23629;DHT22;11991;57.150;-2.134;2022-09-16T17:59:32;10.20;99.90
23629;DHT22;11991;57.150;-2.134;2022-09-16T18:02:02;10.20;99.90
23629;DHT22;11991;57.150;-2.134;2022-09-16T18:08:46;10.20;99.90
23629;DHT22;11991;57.150;-2.134;2022-09-16T18:15:59;10.30;99.90
23629;DHT22;11991;57.150;-2.134;2022-09-16T18:19:15;10.20;99.90
23629;DHT22;11991;57.150;-2.134;2022-09-16T18:22:34;10.30;99.90
23629;DHT22;11991;57.150;-2.134;2022-09-16T18:29:11;10.30;99.90
23629;DHT22;11991;57.150;-2.134;2022-09-16T18:31:42;10.30;99.90
23629;DHT22;11991;57.150;-2.134;2022-09-16T18:34:10;10.30;99.90
23629;DHT22;11991;57.150;-2.134;2022-09-16T18:36:49;10.30;99.90
23629;DHT22;11991;57.150;-2.134;2022-09-16T18:39:16;10.30;99.90
23629;DHT22;11991;57.150;-2.134;2022-09-16T18:41:44;10.30;99.90
23629;DHT22;11991;57.150;-2.134;2022-09-16T18:44:15;10.30;99.90
23629;DHT22;11991;57.150;-2.134;2022-09-16T18:46:43;10.30;99.90
23629;DHT22;11991;57.150;-2.134;2022-09-16T18:49:13;10.30;99.90
23629;DHT22;11991;57.150;-2.134;2022-09-16T18:51:43;10.30;99.90
23629;DHT22;11991;57.150;-2.134;2022-09-16T18:54:22;10.30;99.90
23629;DHT22;11991;57.150;-2.134;2022-09-16T18:56:55;10.30;99.90
23629;DHT22;11991;57.150;-2.134;2022-09-16T18:59:25;10.30;99.90
23629;DHT22;11991;57.150;-2.134;2022-09-16T19:01:59;10.30;99.90
23629;DHT22;11991;57.150;-2.134;2022-09-16T19:04:31;10.30;99.90
23629;DHT22;11991;57.150;-2.134;2022-09-16T19:07:02;10.30;99.90
23629;DHT22;11991;57.150;-2.134;2022-09-16T19:09:37;10.30;99.90
23629;DHT22;11991;57.150;-2.134;2022-09-16T19:12:12;10.20;99.90
23629;DHT22;11991;57.150;-2.134;2022-09-16T19:14:39;10.20;99.90
23629;DHT22;11991;57.150;-2.134;2022-09-16T19:17:07;10.20;99.90
23629;DHT22;11991;57.150;-2.134;2022-09-16T19:19:35;10.10;99.90
23629;DHT22;11991;57.150;-2.134;2022-09-16T19:22:03;10.10;99.90
23629;DHT22;11991;57.150;-2.134;2022-09-16T19:24:32;10.10;99.90
23629;DHT22;11991;57.150;-2.134;2022-09-16T19:27:00;10.10;99.90
23629;DHT22;11991;57.150;-2.134;2022-09-16T19:29:29;10.10;99.90
23629;DHT22;11991;57.150;-2.134;2022-09-16T19:31:58;10.10;99.90
23629;DHT22;11991;57.150;-2.134;2022-09-16T19:34:29;10.00;99.90
23629;DHT22;11991;57.150;-2.134;2022-09-16T19:36:56;10.00;99.90
23629;DHT22;11991;57.150;-2.134;2022-09-16T19:39:26;10.00;99.90
23629;DHT22;11991;57.150;-2.134;2022-09-16T19:41:56;10.00;99.90